»·PEaware :: N196EC KCNO-KSAN

N196EC :: KCNO-KSAN

FLIGHT INFORMATION

Flight Status: Arrived
Operator: Privately registered:
United States
More flights under this callsign
Pilot: Adrián R. (20842)
Aircraft: CESSNA 172 SKYHAWK
(C172)
More flights by this aircraft type
Origin: KCNO Chino
United States
Destination: KSAN San Diego Intl-Lindbergh
United States
More flights between these airports :: More routes between these airports
Route: PDZ V186 HAILE V66 MZB
File this flight plan on PilotEdge
Remarks: TEC ROUTE ONTP12
Altitude:
(Current/Filed)
9,000ft
Speed:
(Current/Filed)
110kts
Departed: 16-Nov-18 10:23 AM
Arrived: 16-Nov-18 11:35 AM
Distance/Time
Traveled:
78nm/1:12
Distance/Time
To Go:
Arrived

Flight Plot

Page will automatically refresh every two minutes.


Map Options




Map Legend


Flown Route
Filed Route
Departure Airport
Arrival Airport
Navaid (VOR, NDB)
Fix

Horizontal Profiles

Position Reports

Time Latitude Longitude Heading Altitude Ground
Speed
16-Nov-18 09:59 33.979498 -117.644090 87 634ft 0kts
16-Nov-18 10:00 33.979498 -117.644090 87 634ft 0kts
16-Nov-18 10:01 33.979498 -117.644090 87 634ft 0kts
16-Nov-18 10:02 33.979498 -117.644090 87 634ft 0kts
16-Nov-18 10:03 33.979498 -117.644090 87 634ft 0kts
16-Nov-18 10:04 33.979498 -117.644090 87 634ft 0kts
16-Nov-18 10:05 33.979498 -117.644090 87 634ft 0kts
16-Nov-18 10:06 33.979498 -117.644090 87 634ft 0kts
16-Nov-18 10:07 33.979498 -117.644090 87 634ft 0kts
16-Nov-18 10:08 33.979498 -117.644090 87 634ft 0kts
16-Nov-18 10:09 33.979498 -117.644090 87 634ft 0kts
16-Nov-18 10:10 33.979498 -117.644090 87 634ft 0kts
16-Nov-18 10:11 33.979498 -117.644090 87 634ft 0kts
16-Nov-18 10:12 33.979498 -117.644090 87 634ft 0kts
16-Nov-18 10:13 33.979498 -117.644090 87 634ft 0kts
16-Nov-18 10:14 33.979498 -117.644090 87 634ft 0kts
16-Nov-18 10:15 33.979495 -117.644057 108 634ft 1kts
16-Nov-18 10:16 33.977471 -117.643418 179 626ft 0kts
16-Nov-18 10:17 33.977471 -117.643418 179 626ft 0kts
16-Nov-18 10:18 33.976852 -117.641903 89 627ft 10kts
16-Nov-18 10:19 33.976887 -117.637625 89 635ft 14kts
16-Nov-18 10:20 33.976937 -117.632309 89 642ft 16kts
16-Nov-18 10:21 33.976745 -117.630493 246 642ft 0kts
16-Nov-18 10:22 33.976745 -117.630493 246 642ft 0kts
16-Nov-18 10:23 33.976745 -117.630493 246 642ft 0kts
16-Nov-18 10:24 33.976726 -117.630641 261 642ft 4kts
16-Nov-18 10:25 33.976310 -117.630828 179 640ft 6kts
16-Nov-18 10:26 33.975802 -117.635643 269 639ft 67kts
16-Nov-18 10:27 33.977176 -117.662383 273 1252ft 82kts
16-Nov-18 10:28 33.978915 -117.689082 273 1937ft 79kts
16-Nov-18 10:29 33.980540 -117.715695 273 2519ft 84kts
16-Nov-18 10:30 33.982124 -117.743551 273 3116ft 83kts
16-Nov-18 10:31 33.983397 -117.771276 272 3680ft 85kts
16-Nov-18 10:32 33.968113 -117.774513 115 4199ft 85kts
16-Nov-18 10:33 33.957702 -117.749052 113 4693ft 87kts
16-Nov-18 10:34 33.947847 -117.722630 100 5195ft 86kts
16-Nov-18 10:35 33.944322 -117.694513 91 5697ft 84kts
16-Nov-18 10:36 33.940567 -117.665716 99 6113ft 91kts
16-Nov-18 10:37 33.936039 -117.636670 97 6605ft 85kts
16-Nov-18 10:38 33.931720 -117.607873 97 7018ft 89kts
16-Nov-18 10:39 33.923751 -117.579351 112 7420ft 91kts
16-Nov-18 10:40 33.913014 -117.551744 111 7822ft 91kts
16-Nov-18 10:41 33.902062 -117.524627 117 8222ft 90kts
16-Nov-18 10:42 33.885143 -117.503630 138 8603ft 90kts
16-Nov-18 10:43 33.864168 -117.484945 142 8912ft 97kts
16-Nov-18 10:44 33.840225 -117.464736 143 9017ft 115kts
16-Nov-18 10:45 33.814355 -117.443119 143 9016ft 113kts
16-Nov-18 10:46 33.788420 -117.421372 143 9016ft 113kts
16-Nov-18 10:47 33.762535 -117.399677 143 9016ft 113kts
16-Nov-18 10:48 33.736627 -117.377980 143 9016ft 113kts
16-Nov-18 10:49 33.710689 -117.356276 143 9015ft 113kts
16-Nov-18 10:50 33.685841 -117.335499 143 9015ft 113kts
16-Nov-18 10:51 33.659895 -117.313821 143 9015ft 113kts
16-Nov-18 10:52 33.633946 -117.292157 143 9015ft 114kts
16-Nov-18 10:53 33.607904 -117.270431 143 9015ft 114kts
16-Nov-18 10:54 33.581940 -117.248775 143 9015ft 114kts
16-Nov-18 10:55 33.555959 -117.227095 143 9015ft 114kts
16-Nov-18 10:56 33.529917 -117.205376 143 9015ft 114kts
16-Nov-18 10:57 33.504185 -117.183930 143 9015ft 114kts
16-Nov-18 10:58 33.477959 -117.162621 158 9013ft 114kts
16-Nov-18 10:59 33.446637 -117.156036 169 9015ft 115kts
16-Nov-18 11:00 33.415360 -117.149562 169 9014ft 115kts
16-Nov-18 11:01 33.383718 -117.142851 170 9013ft 115kts
16-Nov-18 11:02 33.352214 -117.136127 170 9011ft 115kts
16-Nov-18 11:03 33.320504 -117.129351 171 9009ft 115kts
16-Nov-18 11:04 33.288907 -117.122600 171 9007ft 115kts
16-Nov-18 11:05 33.257308 -117.115857 171 9008ft 115kts
16-Nov-18 11:06 33.225796 -117.109132 171 9009ft 115kts
16-Nov-18 11:07 33.194368 -117.102130 170 9011ft 115kts
16-Nov-18 11:08 33.162981 -117.095342 171 9012ft 115kts
16-Nov-18 11:09 33.131676 -117.088951 171 9015ft 115kts
16-Nov-18 11:10 33.101611 -117.082608 171 9017ft 115kts
16-Nov-18 11:11 33.070528 -117.076031 171 9020ft 115kts
16-Nov-18 11:12 33.040879 -117.064242 135 9025ft 116kts
16-Nov-18 11:13 33.017852 -117.036968 134 9029ft 117kts
16-Nov-18 11:14 32.994774 -117.009702 134 9035ft 117kts
16-Nov-18 11:15 32.971698 -116.982497 133 9019ft 119kts
16-Nov-18 11:16 32.948153 -116.954775 133 9007ft 120kts
16-Nov-18 11:17 32.924473 -116.926897 133 9012ft 119kts
16-Nov-18 11:18 32.900838 -116.899086 133 8920ft 125kts
16-Nov-18 11:19 32.875428 -116.868932 133 8192ft 137kts
16-Nov-18 11:20 32.848614 -116.836764 133 7389ft 136kts
16-Nov-18 11:21 32.822257 -116.804818 133 6585ft 135kts
16-Nov-18 11:22 32.796574 -116.773367 132 6004ft 125kts
16-Nov-18 11:23 32.767905 -116.758131 190 5638ft 130kts
16-Nov-18 11:24 32.731945 -116.764684 190 5032ft 126kts
16-Nov-18 11:25 32.699557 -116.771407 192 5000ft 115kts
16-Nov-18 11:26 32.667936 -116.778734 192 5000ft 116kts
16-Nov-18 11:27 32.651503 -116.800711 301 4988ft 109kts
16-Nov-18 11:28 32.660937 -116.834972 281 4988ft 110kts
16-Nov-18 11:29 32.665428 -116.871715 278 4840ft 119kts
16-Nov-18 11:30 32.669698 -116.911446 278 4326ft 123kts
16-Nov-18 11:31 32.675998 -116.950984 287 3766ft 122kts
16-Nov-18 11:32 32.685166 -116.988504 287 3374ft 120kts
16-Nov-18 11:33 32.694524 -117.026880 287 2771ft 120kts
16-Nov-18 11:34 32.703322 -117.064189 286 2325ft 119kts
16-Nov-18 11:35 32.712610 -117.102628 286 1611ft 119kts
16-Nov-18 11:36 32.721400 -117.139057 286 893ft 112kts
16-Nov-18 11:37 32.728522 -117.168996 287 299ft 64kts
16-Nov-18 11:38 32.732761 -117.186402 286 18ft 39kts
16-Nov-18 11:39 32.734035 -117.187971 29 18ft 0kts
16-Nov-18 11:40 32.734035 -117.187971 29 18ft 0kts
16-Nov-18 11:41 32.733701 -117.185514 105 18ft 15kts
16-Nov-18 11:42 32.732440 -117.180301 105 17ft 16kts
16-Nov-18 11:43 32.732623 -117.177163 269 21ft 1kts
16-Nov-18 11:44 32.732310 -117.177321 197 21ft 2kts
16-Nov-18 11:45 32.732271 -117.177334 195 21ft 0kts
16-Nov-18 11:46 32.732271 -117.177334 195 21ft 0kts

Navigation Log

Ident Type
Flight plan parsing failed, navigation log unavailable